Time;durP1;ratioP1;P1;durP2;ratioP2;P2;SDS_P1;SDS_P2;PMS_P1;PMS_P2;Temp;Humidity;BMP_temperature;BMP_pressure;BME280_temperature;BME280_humidity;BME280_pressure;Samples;Min_cycle;Max_cycle;Signal;HPM_P1;HPM_P2
2022/06/23 00:00:47;;;;;;;7.80;4.70;;;14.00;99.90;;;;;;5012566;28;20115;-72
2022/06/23 00:03:19;;;;;;;5.78;4.80;;;13.90;99.90;;;;;;5027163;28;20083;-72
2022/06/23 00:05:51;;;;;;;5.30;4.80;;;13.90;99.90;;;;;;5025271;28;20081;-72
2022/06/23 00:08:17;;;;;;;5.85;4.55;;;13.80;99.90;;;;;;5014301;28;20045;-72
2022/06/23 00:10:47;;;;;;;5.82;4.35;;;13.80;99.90;;;;;;5029669;28;20046;-72
2022/06/23 00:13:16;;;;;;;6.47;5.03;;;13.80;99.90;;;;;;5032199;28;20106;-72
2022/06/23 00:15:44;;;;;;;7.10;4.53;;;13.80;99.90;;;;;;5032563;28;20505;-72
2022/06/23 00:18:27;;;;;;;5.22;4.63;;;13.70;99.90;;;;;;5031041;28;20045;-72
2022/06/23 00:20:55;;;;;;;7.85;5.55;;;13.80;99.90;;;;;;5033844;28;20117;-72
2022/06/23 00:23:32;;;;;;;6.25;5.20;;;13.70;99.90;;;;;;5029404;28;20036;-72
2022/06/23 00:26:18;;;;;;;8.93;5.57;;;13.70;99.90;;;;;;5031852;28;20053;-72
2022/06/23 00:28:47;;;;;;;8.20;5.60;;;13.70;99.90;;;;;;5031805;28;20133;-71
2022/06/23 00:31:45;;;;;;;6.18;5.57;;;13.70;99.90;;;;;;5033925;28;20048;-71
2022/06/23 00:34:37;;;;;;;6.45;5.07;;;13.70;99.90;;;;;;5030435;28;20740;-71
2022/06/23 00:37:18;;;;;;;7.43;5.50;;;13.70;99.90;;;;;;5027875;28;20684;-71
2022/06/23 00:39:55;;;;;;;7.53;5.63;;;13.70;99.90;;;;;;5034342;28;20037;-71
2022/06/23 00:42:36;;;;;;;6.63;5.93;;;13.60;99.90;;;;;;5028423;28;20141;-71
2022/06/23 00:45:11;;;;;;;6.75;5.03;;;13.60;99.90;;;;;;5032332;28;20076;-71
2022/06/23 00:47:37;;;;;;;6.00;5.50;;;13.50;99.90;;;;;;5029789;28;20045;-71
2022/06/23 00:50:13;;;;;;;7.97;5.43;;;13.50;99.90;;;;;;5024974;28;20033;-71
2022/06/23 00:52:45;;;;;;;7.38;5.88;;;13.50;99.90;;;;;;5032416;28;20156;-71
2022/06/23 00:55:26;;;;;;;6.55;5.95;;;13.50;99.90;;;;;;5031159;28;20048;-71
2022/06/23 00:57:57;;;;;;;7.10;5.65;;;13.50;99.90;;;;;;5030897;28;20353;-71
2022/06/23 01:00:31;;;;;;;8.77;6.55;;;13.50;99.90;;;;;;5016119;28;20049;-71
2022/06/23 01:03:20;;;;;;;7.07;6.15;;;13.50;99.90;;;;;;5031004;28;20480;-71
2022/06/23 01:05:56;;;;;;;5.97;5.38;;;13.50;99.90;;;;;;5047409;28;20041;-71
2022/06/23 01:08:32;;;;;;;6.25;5.53;;;13.50;99.90;;;;;;5020626;28;20061;-71
2022/06/23 01:11:15;;;;;;;8.27;6.10;;;13.50;99.90;;;;;;5035385;28;20071;-71
2022/06/23 01:13:56;;;;;;;9.77;6.18;;;13.40;99.90;;;;;;5031692;28;20076;-72
2022/06/23 01:16:45;;;;;;;7.60;5.78;;;13.50;99.90;;;;;;5034535;28;20064;-72
2022/06/23 01:19:44;;;;;;;6.75;6.10;;;13.40;99.90;;;;;;4999707;28;20814;-72
2022/06/23 01:22:38;;;;;;;7.63;6.72;;;13.40;99.90;;;;;;5031928;28;20088;-72
2022/06/23 01:25:41;;;;;;;8.60;6.60;;;13.40;99.90;;;;;;5031353;28;20048;-72
2022/06/23 01:28:23;;;;;;;7.03;6.28;;;13.40;99.90;;;;;;5029681;28;20051;-72
2022/06/23 01:31:21;;;;;;;9.45;7.15;;;13.40;99.90;;;;;;5032907;28;20045;-72
2022/06/23 01:33:58;;;;;;;8.70;7.10;;;13.30;99.90;;;;;;5032356;28;20045;-72
2022/06/23 01:36:28;;;;;;;9.68;7.20;;;13.30;99.90;;;;;;5052023;28;20052;-72
2022/06/23 01:39:01;;;;;;;8.05;6.50;;;13.30;99.90;;;;;;5032431;28;20032;-72
2022/06/23 01:41:39;;;;;;;7.95;6.57;;;13.30;99.90;;;;;;5033825;28;20041;-72
2022/06/23 01:44:08;;;;;;;7.95;6.78;;;13.30;99.90;;;;;;5031053;28;20067;-72
2022/06/23 01:46:43;;;;;;;7.63;6.85;;;13.30;99.90;;;;;;5032637;28;20104;-72
2022/06/23 01:49:09;;;;;;;8.05;7.25;;;13.20;99.90;;;;;;5033092;28;20398;-72
2022/06/23 01:51:37;;;;;;;8.68;7.60;;;13.20;99.90;;;;;;5031658;28;20045;-72
2022/06/23 01:54:16;;;;;;;9.00;7.93;;;13.20;99.90;;;;;;5029964;28;20090;-72
2022/06/23 01:56:59;;;;;;;9.68;7.82;;;13.20;99.90;;;;;;5028146;28;20457;-72
2022/06/23 01:59:40;;;;;;;8.75;7.38;;;13.20;99.90;;;;;;5024889;28;20120;-72
2022/06/23 02:02:35;;;;;;;8.85;7.45;;;13.20;99.90;;;;;;5032009;28;20037;-72
2022/06/23 02:05:12;;;;;;;;;;;13.20;99.90;;;;;;5035146;28;20061;-72
2022/06/23 02:07:51;;;;;;;9.20;7.90;;;13.20;99.90;;;;;;5030888;28;19967;-72
2022/06/23 02:10:30;;;;;;;9.27;8.38;;;13.10;99.90;;;;;;5030941;28;20512;-72
2022/06/23 02:13:21;;;;;;;9.80;7.95;;;13.10;99.90;;;;;;5028951;28;20052;-72
2022/06/23 02:15:47;;;;;;;8.82;7.90;;;13.20;99.90;;;;;;5032503;28;20040;-72
2022/06/23 02:18:28;;;;;;;9.23;7.63;;;13.10;99.90;;;;;;5029977;28;20045;-72
2022/06/23 02:21:01;;;;;;;9.48;8.00;;;13.10;99.90;;;;;;5031494;28;20243;-72
2022/06/23 02:23:48;;;;;;;8.35;7.45;;;13.00;99.90;;;;;;5030914;28;20044;-72
2022/06/23 02:26:23;;;;;;;9.63;8.13;;;12.90;99.90;;;;;;5047300;28;20117;-72
2022/06/23 02:29:27;;;;;;;10.45;8.43;;;12.90;99.90;;;;;;5006586;28;20068;-72
2022/06/23 02:32:04;;;;;;;9.35;8.32;;;12.90;99.90;;;;;;5029080;28;20133;-72
2022/06/23 02:35:17;;;;;;;9.55;8.55;;;12.80;99.90;;;;;;5025506;28;20059;-72
2022/06/23 02:38:01;;;;;;;11.27;8.88;;;12.80;99.90;;;;;;4993930;28;20562;-72
2022/06/23 02:40:45;;;;;;;11.70;8.68;;;12.70;99.90;;;;;;5029645;28;20076;-72
2022/06/23 02:43:25;;;;;;;12.15;9.55;;;12.70;99.90;;;;;;5027382;28;20033;-72
2022/06/23 02:46:23;;;;;;;10.48;9.25;;;12.60;99.90;;;;;;5029413;28;20041;-71
2022/06/23 02:49:06;;;;;;;12.32;9.13;;;12.60;99.90;;;;;;4983553;28;20080;-72
2022/06/23 02:51:41;;;;;;;15.88;10.02;;;12.60;99.90;;;;;;5002390;28;20546;-71
2022/06/23 02:54:19;;;;;;;11.02;9.82;;;12.60;99.90;;;;;;5017320;28;20056;-71
2022/06/23 02:57:13;;;;;;;12.45;10.35;;;12.60;99.90;;;;;;5026159;28;20045;-71
2022/06/23 02:59:51;;;;;;;13.10;10.05;;;12.60;99.90;;;;;;5028744;28;20075;-71
2022/06/23 03:02:37;;;;;;;11.30;9.68;;;12.60;99.90;;;;;;5014039;28;20048;-71
2022/06/23 03:05:16;;;;;;;12.63;10.25;;;12.50;99.90;;;;;;5027721;28;20065;-71
2022/06/23 03:08:00;;;;;;;14.30;10.85;;;12.50;99.90;;;;;;5033125;28;20064;-72
2022/06/23 03:10:36;;;;;;;13.18;10.10;;;12.50;99.90;;;;;;5031883;28;20404;-72
2022/06/23 03:13:21;;;;;;;15.38;11.57;;;12.50;99.90;;;;;;5026690;28;20047;-72
2022/06/23 03:15:53;;;;;;;12.75;11.00;;;12.50;99.90;;;;;;5028485;28;20495;-72
2022/06/23 03:18:25;;;;;;;11.60;10.15;;;12.50;99.90;;;;;;5031921;28;20041;-72
2022/06/23 03:21:03;;;;;;;14.35;9.65;;;12.40;99.90;;;;;;5030117;28;20055;-72
2022/06/23 03:23:45;;;;;;;13.38;10.80;;;12.40;99.90;;;;;;5032547;28;20045;-72
2022/06/23 03:26:27;;;;;;;13.60;10.25;;;12.50;99.90;;;;;;5047019;28;20079;-71
2022/06/23 03:29:15;;;;;;;13.70;11.05;;;12.40;99.90;;;;;;5025078;28;20045;-72
2022/06/23 03:32:02;;;;;;;14.43;10.85;;;12.40;99.90;;;;;;5046725;28;20116;-72
2022/06/23 03:34:31;;;;;;;14.15;11.25;;;12.40;99.90;;;;;;5026394;28;20036;-72
2022/06/23 03:37:12;;;;;;;14.65;11.43;;;12.50;99.90;;;;;;5012032;28;20049;-72
2022/06/23 03:42:41;;;;;;;;;;;12.40;99.90;;;;;;5030224;28;20522;-71
2022/06/23 03:45:30;;;;;;;14.07;10.90;;;12.40;99.90;;;;;;5012079;28;19924;-71
2022/06/23 03:48:16;;;;;;;13.20;10.80;;;12.40;99.90;;;;;;5031072;28;20041;-71
2022/06/23 03:50:47;;;;;;;13.38;11.13;;;12.40;99.90;;;;;;5028364;28;21435;-71
2022/06/23 03:53:25;;;;;;;11.65;10.43;;;12.40;99.90;;;;;;5029960;28;20409;-71
2022/06/23 03:56:16;;;;;;;12.63;11.00;;;12.50;99.90;;;;;;5028041;28;20053;-72
2022/06/23 03:58:52;;;;;;;12.23;10.27;;;12.50;99.90;;;;;;5029450;28;20045;-71
2022/06/23 04:01:56;;;;;;;12.90;10.23;;;12.60;99.90;;;;;;5030422;28;20511;-71
2022/06/23 04:04:43;;;;;;;11.82;10.30;;;12.60;99.90;;;;;;5028198;28;20049;-71
2022/06/23 04:07:27;;;;;;;15.88;11.82;;;12.70;99.90;;;;;;5014810;28;20044;-71
2022/06/23 04:09:54;;;;;;;12.57;10.88;;;12.70;99.90;;;;;;5027921;28;20064;-71
2022/06/23 04:12:20;;;;;;;13.68;11.63;;;12.70;99.90;;;;;;5029946;28;20059;-71
2022/06/23 04:14:52;;;;;;;13.48;10.70;;;12.80;99.90;;;;;;5029857;28;20045;-71
2022/06/23 04:17:27;;;;;;;13.98;11.00;;;12.80;99.90;;;;;;5029954;28;20052;-71
2022/06/23 04:20:03;;;;;;;15.13;12.85;;;12.80;99.90;;;;;;5023361;28;20052;-71
2022/06/23 04:22:40;;;;;;;14.00;11.88;;;12.90;99.90;;;;;;5008578;28;20047;-71
2022/06/23 04:25:11;;;;;;;12.95;11.27;;;13.00;99.90;;;;;;5029836;28;20049;-71
2022/06/23 04:27:50;;;;;;;12.50;10.80;;;13.00;99.90;;;;;;5029432;28;20055;-71
2022/06/23 04:30:25;;;;;;;12.35;10.50;;;13.20;99.90;;;;;;5031212;28;20120;-71
2022/06/23 04:32:52;;;;;;;13.23;10.20;;;13.20;99.90;;;;;;5030643;28;20183;-71
2022/06/23 04:35:27;;;;;;;11.35;10.25;;;13.30;99.90;;;;;;5027276;28;20366;-71
2022/06/23 04:38:10;;;;;;;11.70;10.50;;;13.40;99.90;;;;;;5026230;28;20037;-72
2022/06/23 04:40:42;;;;;;;11.68;10.20;;;13.50;99.90;;;;;;5029128;28;20091;-72
2022/06/23 04:43:22;;;;;;;11.68;10.27;;;13.60;99.90;;;;;;5028487;28;20049;-72
2022/06/23 04:45:59;;;;;;;12.40;10.68;;;13.60;99.90;;;;;;5030775;28;20170;-72
2022/06/23 04:48:55;;;;;;;12.20;10.43;;;13.80;99.90;;;;;;5020059;28;20045;-71
2022/06/23 04:51:30;;;;;;;10.90;9.80;;;13.90;99.90;;;;;;5020666;28;20504;-71
2022/06/23 04:54:04;;;;;;;12.90;10.02;;;14.00;99.90;;;;;;5048419;28;20505;-71
2022/06/23 04:56:42;;;;;;;13.80;10.05;;;14.20;99.90;;;;;;5030616;28;20125;-71
2022/06/23 04:59:28;;;;;;;11.63;10.18;;;14.30;99.90;;;;;;5033712;28;20051;-71
2022/06/23 05:01:57;;;;;;;10.85;9.60;;;14.50;99.90;;;;;;5031838;28;20736;-71
2022/06/23 05:04:36;;;;;;;11.15;9.80;;;14.70;99.90;;;;;;5030586;28;20053;-71
2022/06/23 05:07:03;;;;;;;10.82;9.38;;;14.90;99.90;;;;;;5034689;28;20041;-72
2022/06/23 05:09:35;;;;;;;10.35;9.15;;;15.30;99.90;;;;;;5032637;28;20136;-72
2022/06/23 05:12:05;;;;;;;9.05;8.13;;;15.80;99.90;;;;;;5034676;28;20091;-71
2022/06/23 05:14:59;;;;;;;16.38;11.93;;;16.00;99.90;;;;;;5032716;28;20048;-71
2022/06/23 05:17:35;;;;;;;10.52;9.50;;;15.90;99.90;;;;;;5030381;28;20456;-71
2022/06/23 05:20:05;;;;;;;11.18;9.20;;;15.90;99.90;;;;;;5032292;28;20047;-72
2022/06/23 05:22:36;;;;;;;10.15;8.85;;;15.90;99.90;;;;;;5029108;28;20041;-71
2022/06/23 05:25:32;;;;;;;10.07;9.10;;;15.90;99.90;;;;;;5027832;28;20052;-71
2022/06/23 05:27:58;;;;;;;11.38;9.07;;;15.90;99.90;;;;;;5031975;28;20045;-71
2022/06/23 05:30:31;;;;;;;13.55;10.93;;;15.90;99.90;;;;;;5032143;28;20404;-71
2022/06/23 05:33:16;;;;;;;9.93;8.13;;;16.00;99.90;;;;;;5032980;28;20099;-71
2022/06/23 05:35:49;;;;;;;9.70;8.60;;;16.00;99.90;;;;;;5034694;28;20518;-71
2022/06/23 05:38:39;;;;;;;13.43;8.68;;;16.00;99.90;;;;;;5033215;28;20052;-71
2022/06/23 05:41:34;;;;;;;9.10;8.20;;;16.10;99.90;;;;;;5017943;28;20056;-71
2022/06/23 05:44:03;;;;;;;;;;;16.20;99.90;;;;;;5019385;28;20045;-71
2022/06/23 05:46:30;;;;;;;9.32;7.88;;;16.20;99.90;;;;;;5034904;28;19927;-71
2022/06/23 05:49:18;;;;;;;10.68;8.02;;;16.30;99.90;;;;;;5031172;28;20103;-71
2022/06/23 05:52:19;;;;;;;8.70;7.63;;;16.50;99.90;;;;;;5014218;28;20060;-71
2022/06/23 05:54:47;;;;;;;8.95;7.82;;;16.60;99.90;;;;;;5051258;28;20447;-71
2022/06/23 05:57:19;;;;;;;9.60;8.60;;;16.70;99.90;;;;;;5030737;28;20037;-72
2022/06/23 05:59:59;;;;;;;9.00;8.10;;;16.90;99.90;;;;;;5028915;28;20048;-72
2022/06/23 06:02:44;;;;;;;9.90;8.00;;;17.00;99.90;;;;;;5028660;28;20072;-72
2022/06/23 06:05:33;;;;;;;9.23;7.85;;;17.10;99.90;;;;;;5030697;28;20052;-71
2022/06/23 06:08:01;;;;;;;8.50;7.70;;;17.20;99.90;;;;;;5032087;28;20063;-71
2022/06/23 06:10:29;;;;;;;8.65;7.35;;;17.30;99.90;;;;;;5047769;28;20041;-71
2022/06/23 06:12:56;;;;;;;8.02;7.13;;;17.40;99.90;;;;;;5027259;28;20041;-72
2022/06/23 06:15:27;;;;;;;8.32;7.20;;;17.60;99.90;;;;;;5032854;28;20095;-71
2022/06/23 06:18:10;;;;;;;10.82;7.90;;;17.70;99.90;;;;;;5045887;28;20041;-71
2022/06/23 06:20:36;;;;;;;10.35;7.93;;;17.80;99.90;;;;;;5050151;28;20083;-71
2022/06/23 06:23:21;;;;;;;8.18;7.18;;;17.90;99.90;;;;;;5033969;28;20443;-71
2022/06/23 06:25:48;;;;;;;;;;;18.00;99.90;;;;;;5032750;28;20041;-71
2022/06/23 06:28:16;;;;;;;7.43;6.82;;;18.10;99.90;;;;;;5013685;28;19921;-71
2022/06/23 06:30:49;;;;;;;9.18;7.20;;;18.20;99.90;;;;;;5033858;28;20665;-71
2022/06/23 06:33:34;;;;;;;8.52;7.47;;;18.30;99.90;;;;;;5033386;28;20090;-71
2022/06/23 06:36:00;;;;;;;9.60;7.03;;;18.50;99.90;;;;;;5010761;28;20102;-71
2022/06/23 06:38:28;;;;;;;9.40;7.30;;;18.50;99.90;;;;;;5033033;28;20040;-71
2022/06/23 06:40:56;;;;;;;10.38;7.32;;;18.70;99.90;;;;;;5033103;28;20178;-71
2022/06/23 06:43:29;;;;;;;10.20;7.57;;;18.80;99.90;;;;;;5031857;28;20041;-71
2022/06/23 06:45:57;;;;;;;9.95;7.90;;;18.90;99.90;;;;;;5032504;28;20443;-72
2022/06/23 06:48:32;;;;;;;9.07;7.78;;;19.00;99.90;;;;;;5016580;28;20397;-72
2022/06/23 06:51:17;;;;;;;8.95;6.97;;;19.20;99.90;;;;;;5026550;28;20029;-72
2022/06/23 06:53:48;;;;;;;9.48;7.20;;;19.30;99.90;;;;;;5032825;28;20106;-71
2022/06/23 06:56:37;;;;;;;9.05;7.22;;;19.40;99.90;;;;;;5030861;28;20049;-71
2022/06/23 06:59:13;;;;;;;7.35;6.60;;;19.60;99.90;;;;;;5030435;28;20159;-71
2022/06/23 07:01:41;;;;;;;8.57;7.03;;;19.80;99.90;;;;;;5030274;28;20102;-71
2022/06/23 07:04:15;;;;;;;12.02;9.15;;;19.90;99.90;;;;;;5031216;28;20508;-71
2022/06/23 07:06:49;;;;;;;7.68;6.55;;;20.10;99.90;;;;;;5025571;28;20567;-71
2022/06/23 07:09:14;;;;;;;;;;;20.20;99.90;;;;;;5029991;28;20045;-71
2022/06/23 07:11:52;;;;;;;6.95;5.88;;;20.40;99.90;;;;;;5023833;28;19927;-70
2022/06/23 07:14:25;;;;;;;7.55;6.82;;;20.50;99.90;;;;;;5031711;28;20498;-70
2022/06/23 07:17:12;;;;;;;9.02;6.55;;;20.60;99.90;;;;;;5030831;28;20557;-70
2022/06/23 07:20:00;;;;;;;7.95;6.55;;;20.70;99.90;;;;;;5030384;28;20072;-71
2022/06/23 07:22:27;;;;;;;9.77;6.30;;;20.80;99.90;;;;;;5025103;28;20049;-71
2022/06/23 07:25:16;;;;;;;9.60;7.05;;;21.00;99.90;;;;;;5024896;28;20032;-71
2022/06/23 07:27:59;;;;;;;6.95;6.20;;;21.20;99.90;;;;;;5029071;28;20385;-71
2022/06/23 07:30:29;;;;;;;9.15;6.03;;;21.40;99.90;;;;;;5030494;28;20072;-72
2022/06/23 07:33:03;;;;;;;8.75;6.63;;;21.50;99.90;;;;;;5032501;28;20048;-72
2022/06/23 07:36:07;;;;;;;7.25;6.15;;;21.70;99.90;;;;;;5023600;28;20148;-72
2022/06/23 07:38:39;;;;;;;8.23;6.10;;;21.90;99.90;;;;;;5023965;28;20049;-72
2022/06/23 07:41:27;;;;;;;8.35;5.40;;;22.10;99.90;;;;;;5030781;28;20041;-72
2022/06/23 07:44:11;;;;;;;7.35;5.47;;;22.30;99.90;;;;;;5030789;28;20059;-71
2022/06/23 07:46:38;;;;;;;8.88;5.47;;;22.40;99.90;;;;;;5027750;28;20443;-71
2022/06/23 07:49:06;;;;;;;5.45;4.95;;;22.60;99.90;;;;;;5032192;28;20493;-71
2022/06/23 07:51:32;;;;;;;7.15;5.15;;;22.70;99.90;;;;;;5028964;28;20048;-71
2022/06/23 07:53:58;;;;;;;5.75;5.25;;;22.90;99.90;;;;;;5031924;28;20110;-71
2022/06/23 07:56:31;;;;;;;5.50;4.65;;;23.10;99.90;;;;;;5030633;28;20041;-71
2022/06/23 07:59:03;;;;;;;7.50;6.10;;;23.20;99.60;;;;;;5029370;28;20044;-71
2022/06/23 08:01:41;;;;;;;6.25;5.18;;;23.40;98.20;;;;;;5028938;28;20048;-71
2022/06/23 08:04:25;;;;;;;8.43;4.43;;;23.50;96.90;;;;;;5029184;28;20037;-72
2022/06/23 08:06:52;;;;;;;6.55;4.93;;;23.60;95.50;;;;;;5032161;28;20505;-72
2022/06/23 08:09:41;;;;;;;4.45;3.83;;;23.80;95.80;;;;;;5030396;28;20433;-72
2022/06/23 08:18:05;;;;;;;8.85;3.70;;;24.20;91.00;;;;;;5028995;28;20079;-72
2022/06/23 08:20:38;;;;;;;6.40;4.13;;;24.40;92.70;;;;;;5024174;28;20041;-72
2022/06/23 08:23:06;;;;;;;5.55;3.85;;;24.80;91.90;;;;;;5030213;28;20041;-72
2022/06/23 08:25:32;;;;;;;4.78;3.17;;;25.20;92.20;;;;;;5010745;28;20041;-72
2022/06/23 08:27:58;;;;;;;3.85;3.20;;;25.70;90.10;;;;;;5027277;28;20116;-72
2022/06/23 08:30:26;;;;;;;4.85;3.17;;;26.20;88.80;;;;;;5031004;28;20045;-72
2022/06/23 08:32:53;;;;;;;7.03;3.10;;;26.60;81.50;;;;;;5033069;28;20094;-72
2022/06/23 08:35:37;;;;;;;5.38;3.13;;;26.90;76.70;;;;;;5034397;28;20129;-72
2022/06/23 08:38:38;;;;;;;3.92;2.42;;;27.00;74.80;;;;;;5011137;28;20033;-72
2022/06/23 08:41:17;;;;;;;4.93;2.55;;;27.10;74.70;;;;;;5034334;28;20524;-72
2022/06/23 08:43:50;;;;;;;4.82;2.80;;;27.50;76.70;;;;;;5035219;28;20508;-72
2022/06/23 08:46:28;;;;;;;4.10;2.35;;;27.90;72.30;;;;;;5032306;28;20067;-72
2022/06/23 08:49:05;;;;;;;3.90;3.08;;;28.10;69.60;;;;;;5033084;28;20060;-72
2022/06/23 08:52:02;;;;;;;5.75;2.83;;;28.20;69.00;;;;;;5035336;28;20036;-72
2022/06/23 08:54:41;;;;;;;5.50;2.67;;;28.20;68.20;;;;;;5022291;28;20041;-72
2022/06/23 08:57:19;;;;;;;5.13;3.42;;;28.40;65.90;;;;;;5033495;28;20044;-72
2022/06/23 08:59:50;;;;;;;5.30;2.65;;;28.30;62.80;;;;;;5031175;28;20104;-72
2022/06/23 09:02:22;;;;;;;4.70;2.60;;;28.30;62.90;;;;;;5033465;28;20468;-71
2022/06/23 09:05:14;;;;;;;5.13;2.80;;;28.30;62.10;;;;;;5033483;28;20156;-72
2022/06/23 09:07:45;;;;;;;4.38;2.13;;;28.30;62.50;;;;;;5035654;28;20055;-72
2022/06/23 09:10:29;;;;;;;3.47;2.38;;;28.40;63.00;;;;;;5034924;28;20061;-72
2022/06/23 09:13:36;;;;;;;4.47;2.50;;;28.60;62.00;;;;;;5034999;28;20433;-73
2022/06/23 09:16:18;;;;;;;4.45;2.30;;;28.70;59.70;;;;;;5017786;28;20060;-73
2022/06/23 09:19:02;;;;;;;5.18;2.83;;;28.80;59.10;;;;;;5033647;28;20493;-72
2022/06/23 09:22:03;;;;;;;6.22;2.75;;;29.00;58.70;;;;;;5032389;28;20048;-72
2022/06/23 09:24:53;;;;;;;2.65;2.45;;;29.10;57.60;;;;;;5035045;28;20091;-73
2022/06/23 09:27:34;;;;;;;4.15;2.20;;;29.10;57.90;;;;;;5027872;28;20056;-72
2022/06/23 09:30:04;;;;;;;5.50;2.20;;;29.10;58.00;;;;;;5032941;28;20520;-72
2022/06/23 09:32:43;;;;;;;6.03;2.60;;;29.20;57.20;;;;;;5032166;28;20048;-72
2022/06/23 09:35:12;;;;;;;13.48;2.83;;;29.30;57.80;;;;;;5033510;28;20041;-72
2022/06/23 09:37:40;;;;;;;4.85;2.35;;;29.50;56.90;;;;;;5029196;28;20048;-72
2022/06/23 09:40:27;;;;;;;4.78;1.90;;;29.60;58.40;;;;;;5049934;28;20037;-72
2022/06/23 09:43:22;;;;;;;2.88;1.65;;;29.70;54.70;;;;;;5027851;28;20056;-72
2022/06/23 09:45:59;;;;;;;4.13;1.92;;;29.70;54.70;;;;;;5028660;28;20060;-72
2022/06/23 09:48:56;;;;;;;3.97;2.17;;;29.70;56.10;;;;;;5031999;28;20120;-72
2022/06/23 09:51:38;;;;;;;4.82;2.05;;;29.90;56.00;;;;;;5031539;28;20072;-72
2022/06/23 09:54:28;;;;;;;3.28;1.95;;;30.00;57.40;;;;;;5033133;28;20037;-72
2022/06/23 09:57:02;;;;;;;4.72;2.33;;;30.20;55.30;;;;;;5030829;28;20169;-73
2022/06/23 09:59:36;;;;;;;3.38;2.15;;;30.20;54.80;;;;;;5052096;28;20045;-72
2022/06/23 10:02:33;;;;;;;5.25;1.83;;;30.10;53.00;;;;;;5009371;28;20107;-72
2022/06/23 10:05:24;;;;;;;4.40;2.45;;;30.10;54.40;;;;;;5033657;28;20057;-71
2022/06/23 10:08:08;;;;;;;7.40;2.65;;;30.10;53.10;;;;;;5028749;28;20056;-72
2022/06/23 10:10:46;;;;;;;4.78;2.15;;;30.10;53.90;;;;;;5030397;28;20041;-71
2022/06/23 10:13:31;;;;;;;5.70;2.03;;;30.20;53.10;;;;;;5029549;28;20128;-71
2022/06/23 10:16:14;;;;;;;3.90;1.90;;;30.30;52.50;;;;;;5032269;28;20068;-72
2022/06/23 10:19:13;;;;;;;4.90;2.00;;;30.30;53.40;;;;;;5033800;28;20175;-72
2022/06/23 10:22:16;;;;;;;3.05;1.45;;;30.60;55.30;;;;;;5028875;28;20060;-72
2022/06/23 10:25:05;;;;;;;7.32;5.63;;;31.00;53.20;;;;;;5033272;28;20135;-72
2022/06/23 10:27:51;;;;;;;3.42;1.73;;;30.90;50.50;;;;;;5015645;28;20510;-72
2022/06/23 10:30:41;;;;;;;3.65;1.55;;;30.80;50.90;;;;;;5032465;28;20128;-72
2022/06/23 10:33:22;;;;;;;5.38;1.58;;;30.70;49.90;;;;;;5029236;28;20041;-72
2022/06/23 10:36:06;;;;;;;4.57;1.65;;;30.90;50.70;;;;;;5012093;28;20057;-72
2022/06/23 10:38:43;;;;;;;4.55;1.17;;;31.00;50.50;;;;;;5031649;28;20094;-72
2022/06/23 10:41:25;;;;;;;3.67;1.30;;;31.30;49.60;;;;;;5008235;28;20057;-72
2022/06/23 10:44:19;;;;;;;3.20;1.30;;;31.50;50.50;;;;;;5032772;28;20060;-72
2022/06/23 10:47:20;;;;;;;3.38;1.20;;;31.70;49.30;;;;;;5029425;28;20113;-72
2022/06/23 10:49:52;;;;;;;12.75;1.55;;;31.80;49.10;;;;;;4985558;28;20061;-72
2022/06/23 10:52:24;;;;;;;2.63;1.30;;;31.60;49.90;;;;;;5029837;28;20091;-72
2022/06/23 10:55:02;;;;;;;4.00;1.30;;;31.80;48.50;;;;;;5029945;28;20048;-72
2022/06/23 10:58:02;;;;;;;4.70;1.30;;;32.20;47.00;;;;;;5028970;28;20044;-72
2022/06/23 11:00:45;;;;;;;4.18;1.35;;;32.30;48.80;;;;;;5030880;28;20044;-72
2022/06/23 11:03:11;;;;;;;6.45;1.30;;;32.40;47.70;;;;;;5025909;28;20081;-72
2022/06/23 11:05:55;;;;;;;3.35;1.23;;;32.50;46.30;;;;;;5015737;28;20098;-72
2022/06/23 11:08:54;;;;;;;4.90;1.27;;;32.80;47.90;;;;;;5034054;28;20056;-72
2022/06/23 11:11:57;;;;;;;5.15;1.15;;;32.90;46.50;;;;;;5014733;28;20053;-72
2022/06/23 11:14:31;;;;;;;5.35;1.15;;;33.20;46.30;;;;;;5029577;28;20055;-72
2022/06/23 11:17:16;;;;;;;3.83;1.30;;;33.30;46.80;;;;;;5026606;28;20052;-72
2022/06/23 11:19:49;;;;;;;4.72;1.10;;;33.60;47.40;;;;;;5032358;28;20049;-72
2022/06/23 11:22:44;;;;;;;4.00;1.67;;;34.00;45.40;;;;;;5028014;28;20044;-72
2022/06/23 11:25:51;;;;;;;3.85;1.33;;;33.80;43.00;;;;;;5032618;28;20074;-72
2022/06/23 11:28:49;;;;;;;2.60;0.82;;;33.60;43.00;;;;;;5028345;28;20071;-72
2022/06/23 11:31:38;;;;;;;5.55;1.08;;;33.60;45.00;;;;;;5031150;28;20043;-72
2022/06/23 11:34:42;;;;;;;3.05;0.88;;;33.40;43.60;;;;;;5033141;28;20036;-72
2022/06/23 11:37:44;;;;;;;5.07;1.20;;;33.20;43.40;;;;;;4934980;28;20138;-72
2022/06/23 11:40:27;;;;;;;4.00;1.05;;;33.20;44.70;;;;;;5031500;28;20045;-72
2022/06/23 11:43:25;;;;;;;2.30;1.10;;;33.40;42.30;;;;;;5028998;28;20041;-73
2022/06/23 11:45:57;;;;;;;4.55;0.80;;;33.30;42.10;;;;;;4976526;28;20126;-73
2022/06/23 11:48:50;;;;;;;5.80;2.30;;;33.50;43.30;;;;;;5031331;28;20045;-72
2022/06/23 11:51:24;;;;;;;2.67;1.08;;;33.80;42.40;;;;;;5030075;28;20210;-72
2022/06/23 11:54:12;;;;;;;6.38;1.17;;;33.70;44.00;;;;;;5031331;28;20428;-72
2022/06/23 11:56:56;;;;;;;4.13;1.20;;;34.00;43.80;;;;;;5044799;28;20500;-72
2022/06/23 11:59:33;;;;;;;3.20;1.10;;;34.10;42.90;;;;;;5031919;28;20152;-72
2022/06/23 12:01:59;;;;;;;3.40;0.80;;;34.10;42.80;;;;;;5031821;28;20045;-71
2022/06/23 12:04:28;;;;;;;1.52;0.60;;;34.10;39.70;;;;;;5028384;28;20061;-72
2022/06/23 12:07:24;;;;;;;2.03;0.80;;;33.90;41.10;;;;;;5026384;28;20512;-72
2022/06/23 12:10:14;;;;;;;5.05;1.00;;;33.90;41.60;;;;;;5027222;28;20060;-72
2022/06/23 12:12:42;;;;;;;3.42;1.27;;;34.00;42.60;;;;;;5026851;28;20485;-72
2022/06/23 12:15:10;;;;;;;2.13;0.70;;;34.10;42.40;;;;;;5023733;28;20076;-71
2022/06/23 12:17:58;;;;;;;2.80;0.85;;;34.10;40.80;;;;;;5024795;28;20042;-71
2022/06/23 12:20:37;;;;;;;2.42;1.00;;;34.00;40.80;;;;;;5028692;28;20053;-72
2022/06/23 12:23:19;;;;;;;3.85;0.90;;;33.90;41.90;;;;;;5026789;28;20049;-72
2022/06/23 12:25:50;;;;;;;2.10;0.60;;;34.10;40.40;;;;;;5022500;28;20060;-72
2022/06/23 12:28:25;;;;;;;3.42;0.80;;;34.10;41.80;;;;;;5022500;28;20053;-74
2022/06/23 12:31:09;;;;;;;4.43;1.00;;;34.20;42.00;;;;;;5025542;28;20136;-73
2022/06/23 12:33:39;;;;;;;2.65;0.98;;;34.50;42.80;;;;;;5022959;28;20442;-73
2022/06/23 12:36:12;;;;;;;1.75;0.90;;;34.70;40.80;;;;;;5026128;28;20071;-71
2022/06/23 12:38:44;;;;;;;3.60;1.03;;;34.90;41.30;;;;;;5022598;28;20045;-72
2022/06/23 12:41:12;;;;;;;2.03;0.90;;;34.90;38.30;;;;;;5026699;28;20488;-71
2022/06/23 12:44:17;;;;;;;2.38;0.82;;;34.70;38.60;;;;;;5025591;28;20038;-72
2022/06/23 12:46:49;;;;;;;3.75;0.90;;;34.40;39.30;;;;;;5016978;28;20049;-71
2022/06/23 12:49:40;;;;;;;4.63;1.25;;;34.40;39.40;;;;;;5026395;28;20088;-72
2022/06/23 12:52:24;;;;;;;2.60;0.80;;;34.40;39.50;;;;;;5022803;28;20057;-72
2022/06/23 12:55:03;;;;;;;2.80;0.95;;;34.40;40.40;;;;;;5021929;28;20109;-72
2022/06/23 12:58:04;;;;;;;1.75;0.77;;;34.50;40.30;;;;;;5023613;28;20432;-72
2022/06/23 13:01:06;;;;;;;3.50;1.00;;;34.60;40.80;;;;;;5025789;28;20060;-72
2022/06/23 13:03:57;;;;;;;2.53;1.05;;;34.70;41.50;;;;;;5024659;28;20071;-72
2022/06/23 13:07:01;;;;;;;3.90;1.08;;;34.80;41.70;;;;;;5023481;28;20351;-72
2022/06/23 13:09:39;;;;;;;2.55;1.17;;;34.90;40.20;;;;;;5026924;28;20095;-72
2022/06/23 13:12:15;;;;;;;4.32;2.03;;;35.00;40.40;;;;;;5026176;28;20041;-71
2022/06/23 13:15:07;;;;;;;4.53;3.38;;;35.10;38.10;;;;;;5028306;28;20509;-72
2022/06/23 13:17:53;;;;;;;7.32;4.75;;;35.00;38.20;;;;;;5025079;28;20045;-72
2022/06/23 13:20:39;;;;;;;6.03;1.92;;;34.90;37.10;;;;;;5027673;28;20064;-72
2022/06/23 13:23:09;;;;;;;8.70;4.47;;;34.70;38.60;;;;;;5029516;28;20045;-69
2022/06/23 13:25:43;;;;;;;3.33;1.90;;;34.60;38.70;;;;;;5028634;28;20124;-69
2022/06/23 13:28:28;;;;;;;2.05;0.82;;;34.50;39.50;;;;;;5021236;28;20037;-69
2022/06/23 13:30:57;;;;;;;2.17;0.90;;;34.40;39.40;;;;;;5032807;28;20088;-70
2022/06/23 13:33:48;;;;;;;2.17;1.40;;;34.40;40.60;;;;;;5029108;28;20042;-70
2022/06/23 13:36:27;;;;;;;2.60;1.13;;;34.40;39.10;;;;;;5031267;28;20056;-69
2022/06/23 13:38:56;;;;;;;3.20;0.98;;;34.40;39.90;;;;;;5031496;28;20046;-69
2022/06/23 13:41:46;;;;;;;3.05;0.80;;;34.40;39.50;;;;;;5029702;28;20041;-71
2022/06/23 13:44:30;;;;;;;2.85;0.70;;;34.30;37.50;;;;;;5031529;28;20042;-68
2022/06/23 13:47:08;;;;;;;1.35;0.88;;;34.10;39.10;;;;;;5031270;28;20089;-68
2022/06/23 13:49:49;;;;;;;2.35;0.95;;;34.20;38.70;;;;;;5029532;28;20049;-68
2022/06/23 13:52:44;;;;;;;3.33;0.85;;;34.30;40.30;;;;;;5029763;28;20089;-69
2022/06/23 13:55:20;;;;;;;3.35;0.85;;;34.20;41.20;;;;;;5024751;28;20046;-73
2022/06/23 13:57:58;;;;;;;3.25;1.20;;;34.20;39.70;;;;;;5028228;28;20053;-71
2022/06/23 14:00:41;;;;;;;2.28;0.70;;;34.20;39.40;;;;;;5027452;28;20485;-70